sensor_id;sensor_type;location;lat;lon;timestamp;temperature;humidity
65369;HTU21D;51970;53.484;49.488;2023-04-25T00:00:29;12.71;58.41
65369;HTU21D;51970;53.484;49.488;2023-04-25T00:02:55;12.67;58.32
65369;HTU21D;51970;53.484;49.488;2023-04-25T00:05:26;12.69;58.67
65369;HTU21D;51970;53.484;49.488;2023-04-25T00:07:53;12.65;58.65
65369;HTU21D;51970;53.484;49.488;2023-04-25T00:10:20;12.64;58.81
65369;HTU21D;51970;53.484;49.488;2023-04-25T00:12:46;12.65;58.83
65369;HTU21D;51970;53.484;49.488;2023-04-25T00:15:13;12.64;58.67
65369;HTU21D;51970;53.484;49.488;2023-04-25T00:17:39;12.70;58.51
65369;HTU21D;51970;53.484;49.488;2023-04-25T00:20:06;12.72;58.47
65369;HTU21D;51970;53.484;49.488;2023-04-25T00:22:35;12.73;58.52
65369;HTU21D;51970;53.484;49.488;2023-04-25T00:25:06;12.69;58.38
65369;HTU21D;51970;53.484;49.488;2023-04-25T00:27:33;12.70;58.57
65369;HTU21D;51970;53.484;49.488;2023-04-25T00:29:59;12.69;58.55
65369;HTU21D;51970;53.484;49.488;2023-04-25T00:32:25;12.67;58.53
65369;HTU21D;51970;53.484;49.488;2023-04-25T00:34:51;12.67;58.45
65369;HTU21D;51970;53.484;49.488;2023-04-25T00:37:17;12.67;58.72
65369;HTU21D;51970;53.484;49.488;2023-04-25T00:39:44;12.67;58.71
65369;HTU21D;51970;53.484;49.488;2023-04-25T00:42:11;12.71;58.71
65369;HTU21D;51970;53.484;49.488;2023-04-25T00:44:38;12.72;58.52
65369;HTU21D;51970;53.484;49.488;2023-04-25T00:47:05;12.73;58.60
65369;HTU21D;51970;53.484;49.488;2023-04-25T00:49:31;12.73;58.44
65369;HTU21D;51970;53.484;49.488;2023-04-25T00:51:58;12.74;58.57
65369;HTU21D;51970;53.484;49.488;2023-04-25T00:54:24;12.74;58.61
65369;HTU21D;51970;53.484;49.488;2023-04-25T00:56:51;12.74;58.89
65369;HTU21D;51970;53.484;49.488;2023-04-25T00:59:19;12.76;58.51
65369;HTU21D;51970;53.484;49.488;2023-04-25T01:01:45;12.82;58.19
65369;HTU21D;51970;53.484;49.488;2023-04-25T01:04:13;12.90;58.06
65369;HTU21D;51970;53.484;49.488;2023-04-25T01:06:40;12.93;57.79
65369;HTU21D;51970;53.484;49.488;2023-04-25T01:09:06;12.95;57.75
65369;HTU21D;51970;53.484;49.488;2023-04-25T01:11:33;12.96;57.74
65369;HTU21D;51970;53.484;49.488;2023-04-25T01:13:59;12.96;57.72
65369;HTU21D;51970;53.484;49.488;2023-04-25T01:16:26;12.96;57.77
65369;HTU21D;51970;53.484;49.488;2023-04-25T01:18:53;13.00;57.74
65369;HTU21D;51970;53.484;49.488;2023-04-25T01:21:20;13.00;57.67
65369;HTU21D;51970;53.484;49.488;2023-04-25T01:23:47;13.00;57.74
65369;HTU21D;51970;53.484;49.488;2023-04-25T01:26:13;13.03;57.63
65369;HTU21D;51970;53.484;49.488;2023-04-25T01:28:40;13.01;57.67
65369;HTU21D;51970;53.484;49.488;2023-04-25T01:31:09;13.01;57.79
65369;HTU21D;51970;53.484;49.488;2023-04-25T01:33:35;13.00;57.62
65369;HTU21D;51970;53.484;49.488;2023-04-25T01:36:02;13.01;57.86
65369;HTU21D;51970;53.484;49.488;2023-04-25T01:38:28;13.03;57.88
65369;HTU21D;51970;53.484;49.488;2023-04-25T01:40:56;13.07;57.71
65369;HTU21D;51970;53.484;49.488;2023-04-25T01:43:22;13.07;57.70
65369;HTU21D;51970;53.484;49.488;2023-04-25T01:45:50;13.07;57.86
65369;HTU21D;51970;53.484;49.488;2023-04-25T01:48:16;13.10;57.76
65369;HTU21D;51970;53.484;49.488;2023-04-25T01:50:43;13.12;57.61
65369;HTU21D;51970;53.484;49.488;2023-04-25T01:53:10;13.12;57.80
65369;HTU21D;51970;53.484;49.488;2023-04-25T01:55:37;13.16;57.59
65369;HTU21D;51970;53.484;49.488;2023-04-25T01:58:04;13.18;57.57
65369;HTU21D;51970;53.484;49.488;2023-04-25T02:00:38;13.23;57.55
65369;HTU21D;51970;53.484;49.488;2023-04-25T02:03:07;13.24;57.55
65369;HTU21D;51970;53.484;49.488;2023-04-25T02:05:37;13.29;57.44
65369;HTU21D;51970;53.484;49.488;2023-04-25T02:08:05;13.32;57.45
65369;HTU21D;51970;53.484;49.488;2023-04-25T02:10:32;13.33;57.83
65369;HTU21D;51970;53.484;49.488;2023-04-25T02:12:58;13.34;58.48
65369;HTU21D;51970;53.484;49.488;2023-04-25T02:15:25;13.32;58.54
65369;HTU21D;51970;53.484;49.488;2023-04-25T02:17:51;13.30;58.59
65369;HTU21D;51970;53.484;49.488;2023-04-25T02:20:21;13.27;58.78
65369;HTU21D;51970;53.484;49.488;2023-04-25T02:22:47;13.24;58.83
65369;HTU21D;51970;53.484;49.488;2023-04-25T02:25:14;13.17;59.10
65369;HTU21D;51970;53.484;49.488;2023-04-25T02:27:42;13.14;59.38
65369;HTU21D;51970;53.484;49.488;2023-04-25T02:30:09;13.12;59.35
65369;HTU21D;51970;53.484;49.488;2023-04-25T02:32:35;13.10;59.48
65369;HTU21D;51970;53.484;49.488;2023-04-25T02:35:02;13.12;60.03
65369;HTU21D;51970;53.484;49.488;2023-04-25T02:37:35;13.11;60.26
65369;HTU21D;51970;53.484;49.488;2023-04-25T02:40:02;13.17;60.48
65369;HTU21D;51970;53.484;49.488;2023-04-25T02:42:30;13.23;61.28
65369;HTU21D;51970;53.484;49.488;2023-04-25T02:44:56;13.23;62.02
65369;HTU21D;51970;53.484;49.488;2023-04-25T02:47:22;13.20;62.71
65369;HTU21D;51970;53.484;49.488;2023-04-25T02:49:49;13.24;62.02
65369;HTU21D;51970;53.484;49.488;2023-04-25T02:52:15;13.21;61.99
65369;HTU21D;51970;53.484;49.488;2023-04-25T02:54:41;13.19;62.08
65369;HTU21D;51970;53.484;49.488;2023-04-25T02:57:07;13.19;61.66
65369;HTU21D;51970;53.484;49.488;2023-04-25T02:59:34;13.20;61.35
65369;HTU21D;51970;53.484;49.488;2023-04-25T03:02:00;13.24;60.93
65369;HTU21D;51970;53.484;49.488;2023-04-25T03:04:26;13.34;60.51
65369;HTU21D;51970;53.484;49.488;2023-04-25T03:06:53;13.36;60.70
65369;HTU21D;51970;53.484;49.488;2023-04-25T03:09:19;13.31;60.36
65369;HTU21D;51970;53.484;49.488;2023-04-25T03:11:46;13.29;60.38
65369;HTU21D;51970;53.484;49.488;2023-04-25T03:14:13;13.18;60.48
65369;HTU21D;51970;53.484;49.488;2023-04-25T03:16:39;13.12;60.78
65369;HTU21D;51970;53.484;49.488;2023-04-25T03:19:05;13.11;61.08
65369;HTU21D;51970;53.484;49.488;2023-04-25T03:21:32;13.20;61.45
65369;HTU21D;51970;53.484;49.488;2023-04-25T03:24:02;13.22;62.28
65369;HTU21D;51970;53.484;49.488;2023-04-25T03:26:28;13.21;62.08
65369;HTU21D;51970;53.484;49.488;2023-04-25T03:28:55;13.17;63.03
65369;HTU21D;51970;53.484;49.488;2023-04-25T03:31:21;13.07;63.75
65369;HTU21D;51970;53.484;49.488;2023-04-25T03:33:48;12.99;63.59
65369;HTU21D;51970;53.484;49.488;2023-04-25T03:36:14;12.95;63.95
65369;HTU21D;51970;53.484;49.488;2023-04-25T03:38:40;13.05;64.62
65369;HTU21D;51970;53.484;49.488;2023-04-25T03:41:07;13.14;64.02
65369;HTU21D;51970;53.484;49.488;2023-04-25T03:43:33;13.26;63.99
65369;HTU21D;51970;53.484;49.488;2023-04-25T03:46:00;13.39;63.68
65369;HTU21D;51970;53.484;49.488;2023-04-25T03:48:26;13.41;64.18
65369;HTU21D;51970;53.484;49.488;2023-04-25T03:50:53;13.40;65.30
65369;HTU21D;51970;53.484;49.488;2023-04-25T03:53:20;13.35;64.79
65369;HTU21D;51970;53.484;49.488;2023-04-25T03:55:46;13.32;65.48
65369;HTU21D;51970;53.484;49.488;2023-04-25T03:58:14;13.33;65.17
65369;HTU21D;51970;53.484;49.488;2023-04-25T04:00:40;13.30;65.53
65369;HTU21D;51970;53.484;49.488;2023-04-25T04:03:06;13.33;66.13
65369;HTU21D;51970;53.484;49.488;2023-04-25T04:05:32;13.34;65.45
65369;HTU21D;51970;53.484;49.488;2023-04-25T04:07:59;13.36;65.49
65369;HTU21D;51970;53.484;49.488;2023-04-25T04:10:25;13.43;65.92
65369;HTU21D;51970;53.484;49.488;2023-04-25T04:12:53;13.45;66.00
65369;HTU21D;51970;53.484;49.488;2023-04-25T04:15:21;13.53;65.95
65369;HTU21D;51970;53.484;49.488;2023-04-25T04:17:48;13.55;66.17
65369;HTU21D;51970;53.484;49.488;2023-04-25T04:20:14;13.64;65.88
65369;HTU21D;51970;53.484;49.488;2023-04-25T04:22:41;13.70;65.71
65369;HTU21D;51970;53.484;49.488;2023-04-25T04:25:07;13.73;65.29
65369;HTU21D;51970;53.484;49.488;2023-04-25T04:27:33;13.83;65.63
65369;HTU21D;51970;53.484;49.488;2023-04-25T04:30:00;13.96;64.93
65369;HTU21D;51970;53.484;49.488;2023-04-25T04:32:26;14.01;64.40
65369;HTU21D;51970;53.484;49.488;2023-04-25T04:34:53;14.11;63.05
65369;HTU21D;51970;53.484;49.488;2023-04-25T04:37:20;14.29;62.78
65369;HTU21D;51970;53.484;49.488;2023-04-25T04:39:47;14.32;61.98
65369;HTU21D;51970;53.484;49.488;2023-04-25T04:42:13;14.36;61.97
65369;HTU21D;51970;53.484;49.488;2023-04-25T04:44:39;14.40;62.27
65369;HTU21D;51970;53.484;49.488;2023-04-25T04:47:06;14.45;62.34
65369;HTU21D;51970;53.484;49.488;2023-04-25T04:49:32;14.52;61.92
65369;HTU21D;51970;53.484;49.488;2023-04-25T04:51:59;14.63;62.21
65369;HTU21D;51970;53.484;49.488;2023-04-25T04:54:27;14.74;61.52
65369;HTU21D;51970;53.484;49.488;2023-04-25T04:56:55;14.86;60.64
65369;HTU21D;51970;53.484;49.488;2023-04-25T04:59:22;14.80;60.51
65369;HTU21D;51970;53.484;49.488;2023-04-25T05:01:48;14.82;59.93
65369;HTU21D;51970;53.484;49.488;2023-04-25T05:04:14;14.97;60.22
65369;HTU21D;51970;53.484;49.488;2023-04-25T05:06:43;15.16;59.21
65369;HTU21D;51970;53.484;49.488;2023-04-25T05:09:12;15.30;58.41
65369;HTU21D;51970;53.484;49.488;2023-04-25T05:11:38;15.42;58.10
65369;HTU21D;51970;53.484;49.488;2023-04-25T05:14:05;15.52;58.11
65369;HTU21D;51970;53.484;49.488;2023-04-25T05:16:31;15.71;57.12
65369;HTU21D;51970;53.484;49.488;2023-04-25T05:18:57;15.62;56.77
65369;HTU21D;51970;53.484;49.488;2023-04-25T05:21:26;15.57;56.93
65369;HTU21D;51970;53.484;49.488;2023-04-25T05:23:54;15.68;56.33
65369;HTU21D;51970;53.484;49.488;2023-04-25T05:26:20;15.82;55.91
65369;HTU21D;51970;53.484;49.488;2023-04-25T05:28:46;15.88;55.49
65369;HTU21D;51970;53.484;49.488;2023-04-25T05:31:13;15.78;55.52
65369;HTU21D;51970;53.484;49.488;2023-04-25T05:33:39;15.78;55.51
65369;HTU21D;51970;53.484;49.488;2023-04-25T05:36:06;15.81;55.80
65369;HTU21D;51970;53.484;49.488;2023-04-25T05:38:33;15.70;55.71
65369;HTU21D;51970;53.484;49.488;2023-04-25T05:40:59;15.88;56.22
65369;HTU21D;51970;53.484;49.488;2023-04-25T05:43:26;16.03;55.24
65369;HTU21D;51970;53.484;49.488;2023-04-25T05:45:53;16.37;54.39
65369;HTU21D;51970;53.484;49.488;2023-04-25T05:48:19;16.76;53.65
65369;HTU21D;51970;53.484;49.488;2023-04-25T05:50:45;17.10;53.44
65369;HTU21D;51970;53.484;49.488;2023-04-25T05:53:12;17.31;52.44
65369;HTU21D;51970;53.484;49.488;2023-04-25T05:55:39;17.59;51.70
65369;HTU21D;51970;53.484;49.488;2023-04-25T05:58:05;17.74;51.17
65369;HTU21D;51970;53.484;49.488;2023-04-25T06:00:34;17.70;51.38
65369;HTU21D;51970;53.484;49.488;2023-04-25T06:03:01;17.60;51.64
65369;HTU21D;51970;53.484;49.488;2023-04-25T06:05:27;17.54;51.53
65369;HTU21D;51970;53.484;49.488;2023-04-25T06:07:56;17.56;51.15
65369;HTU21D;51970;53.484;49.488;2023-04-25T06:10:22;17.68;51.02
65369;HTU21D;51970;53.484;49.488;2023-04-25T06:12:48;17.93;49.95
65369;HTU21D;51970;53.484;49.488;2023-04-25T06:15:15;18.13;49.07
65369;HTU21D;51970;53.484;49.488;2023-04-25T06:17:41;18.19;49.44
65369;HTU21D;51970;53.484;49.488;2023-04-25T06:20:08;18.20;49.20
65369;HTU21D;51970;53.484;49.488;2023-04-25T06:22:34;18.07;49.52
65369;HTU21D;51970;53.484;49.488;2023-04-25T06:25:00;18.12;49.54
65369;HTU21D;51970;53.484;49.488;2023-04-25T06:27:28;18.30;49.11
65369;HTU21D;51970;53.484;49.488;2023-04-25T06:29:55;18.23;48.70
65369;HTU21D;51970;53.484;49.488;2023-04-25T06:32:21;18.21;48.88
65369;HTU21D;51970;53.484;49.488;2023-04-25T06:34:47;18.00;49.66
65369;HTU21D;51970;53.484;49.488;2023-04-25T06:37:13;17.87;50.09
65369;HTU21D;51970;53.484;49.488;2023-04-25T06:39:40;17.76;50.37
65369;HTU21D;51970;53.484;49.488;2023-04-25T06:42:06;17.78;51.09
65369;HTU21D;51970;53.484;49.488;2023-04-25T06:44:32;17.82;51.65
65369;HTU21D;51970;53.484;49.488;2023-04-25T06:46:58;17.85;52.18
65369;HTU21D;51970;53.484;49.488;2023-04-25T06:49:24;17.84;51.69
65369;HTU21D;51970;53.484;49.488;2023-04-25T06:51:51;17.87;54.09
65369;HTU21D;51970;53.484;49.488;2023-04-25T06:54:17;17.84;53.27
65369;HTU21D;51970;53.484;49.488;2023-04-25T06:56:43;17.82;55.20
65369;HTU21D;51970;53.484;49.488;2023-04-25T06:59:09;17.82;54.44
65369;HTU21D;51970;53.484;49.488;2023-04-25T07:01:35;17.85;54.27
65369;HTU21D;51970;53.484;49.488;2023-04-25T07:04:02;17.88;54.05
65369;HTU21D;51970;53.484;49.488;2023-04-25T07:06:28;17.89;53.72
65369;HTU21D;51970;53.484;49.488;2023-04-25T07:08:54;17.94;55.42
65369;HTU21D;51970;53.484;49.488;2023-04-25T07:11:21;17.93;55.14
65369;HTU21D;51970;53.484;49.488;2023-04-25T07:13:47;17.82;55.00
65369;HTU21D;51970;53.484;49.488;2023-04-25T08:56:54;18.07;55.21
65369;HTU21D;51970;53.484;49.488;2023-04-25T08:59:22;18.07;55.41
65369;HTU21D;51970;53.484;49.488;2023-04-25T09:01:49;18.12;54.15
65369;HTU21D;51970;53.484;49.488;2023-04-25T09:04:16;18.12;54.62
65369;HTU21D;51970;53.484;49.488;2023-04-25T09:06:43;18.11;54.27
65369;HTU21D;51970;53.484;49.488;2023-04-25T09:09:10;18.13;55.23
65369;HTU21D;51970;53.484;49.488;2023-04-25T09:11:36;18.25;55.81
65369;HTU21D;51970;53.484;49.488;2023-04-25T09:14:11;18.29;53.56
65369;HTU21D;51970;53.484;49.488;2023-04-25T09:19:28;18.57;53.49
65369;HTU21D;51970;53.484;49.488;2023-04-25T09:21:56;18.66;52.69
65369;HTU21D;51970;53.484;49.488;2023-04-25T09:24:44;18.67;53.23
65369;HTU21D;51970;53.484;49.488;2023-04-25T09:27:17;18.56;54.15
65369;HTU21D;51970;53.484;49.488;2023-04-25T09:29:44;18.68;54.72
65369;HTU21D;51970;53.484;49.488;2023-04-25T09:32:15;18.68;53.14
65369;HTU21D;51970;53.484;49.488;2023-04-25T09:34:43;18.61;53.14
65369;HTU21D;51970;53.484;49.488;2023-04-25T09:37:10;18.67;54.51
65369;HTU21D;51970;53.484;49.488;2023-04-25T09:39:38;18.79;55.00
65369;HTU21D;51970;53.484;49.488;2023-04-25T09:42:05;18.78;54.09
65369;HTU21D;51970;53.484;49.488;2023-04-25T09:44:32;18.69;52.72
65369;HTU21D;51970;53.484;49.488;2023-04-25T09:47:00;18.55;52.40
65369;HTU21D;51970;53.484;49.488;2023-04-25T09:49:26;18.34;54.62
65369;HTU21D;51970;53.484;49.488;2023-04-25T09:52:00;18.13;54.57
65369;HTU21D;51970;53.484;49.488;2023-04-25T09:54:27;18.08;54.41
65369;HTU21D;51970;53.484;49.488;2023-04-25T09:56:53;17.88;54.14
65369;HTU21D;51970;53.484;49.488;2023-04-25T09:59:23;17.92;53.34
65369;HTU21D;51970;53.484;49.488;2023-04-25T10:01:52;17.90;54.48
65369;HTU21D;51970;53.484;49.488;2023-04-25T10:04:26;17.83;54.68
65369;HTU21D;51970;53.484;49.488;2023-04-25T10:06:54;17.82;54.51
65369;HTU21D;51970;53.484;49.488;2023-04-25T10:09:25;17.75;54.94
65369;HTU21D;51970;53.484;49.488;2023-04-25T10:11:52;17.64;55.24
65369;HTU21D;51970;53.484;49.488;2023-04-25T10:14:19;17.60;55.37
65369;HTU21D;51970;53.484;49.488;2023-04-25T10:16:50;17.47;55.40
65369;HTU21D;51970;53.484;49.488;2023-04-25T10:19:20;17.48;56.12
65369;HTU21D;51970;53.484;49.488;2023-04-25T10:22:18;17.41;57.32
65369;HTU21D;51970;53.484;49.488;2023-04-25T10:24:48;17.32;57.32
65369;HTU21D;51970;53.484;49.488;2023-04-25T10:27:17;17.26;58.44
65369;HTU21D;51970;53.484;49.488;2023-04-25T10:30:03;17.26;59.64
65369;HTU21D;51970;53.484;49.488;2023-04-25T10:32:42;17.34;59.16
65369;HTU21D;51970;53.484;49.488;2023-04-25T10:35:22;17.40;60.00
65369;HTU21D;51970;53.484;49.488;2023-04-25T10:38:10;17.33;59.30
65369;HTU21D;51970;53.484;49.488;2023-04-25T10:40:37;17.31;58.58
65369;HTU21D;51970;53.484;49.488;2023-04-25T10:48:59;17.07;60.60
65369;HTU21D;51970;53.484;49.488;2023-04-25T10:51:31;17.03;61.38
65369;HTU21D;51970;53.484;49.488;2023-04-25T10:54:07;16.96;61.70
65369;HTU21D;51970;53.484;49.488;2023-04-25T10:56:41;16.95;62.88
65369;HTU21D;51970;53.484;49.488;2023-04-25T10:59:19;16.95;62.17
65369;HTU21D;51970;53.484;49.488;2023-04-25T11:01:51;16.93;62.29
65369;HTU21D;51970;53.484;49.488;2023-04-25T11:04:30;16.74;63.63
65369;HTU21D;51970;53.484;49.488;2023-04-25T11:07:13;16.73;63.37
65369;HTU21D;51970;53.484;49.488;2023-04-25T11:09:45;16.72;62.68
65369;HTU21D;51970;53.484;49.488;2023-04-25T11:12:21;16.69;63.08
65369;HTU21D;51970;53.484;49.488;2023-04-25T11:14:47;16.71;63.03
65369;HTU21D;51970;53.484;49.488;2023-04-25T11:17:24;16.67;63.11
65369;HTU21D;51970;53.484;49.488;2023-04-25T11:19:54;16.70;63.84
65369;HTU21D;51970;53.484;49.488;2023-04-25T11:22:22;16.66;64.66
65369;HTU21D;51970;53.484;49.488;2023-04-25T11:24:57;16.62;64.63
65369;HTU21D;51970;53.484;49.488;2023-04-25T11:27:26;16.59;65.11
65369;HTU21D;51970;53.484;49.488;2023-04-25T11:30:15;16.72;63.47
65369;HTU21D;51970;53.484;49.488;2023-04-25T11:32:48;16.80;63.73
65369;HTU21D;51970;53.484;49.488;2023-04-25T11:35:54;16.69;63.61
65369;HTU21D;51970;53.484;49.488;2023-04-25T11:38:30;16.64;64.65
65369;HTU21D;51970;53.484;49.488;2023-04-25T11:41:02;16.62;64.85
65369;HTU21D;51970;53.484;49.488;2023-04-25T11:43:30;16.57;66.29
65369;HTU21D;51970;53.484;49.488;2023-04-25T11:46:12;16.50;65.15
65369;HTU21D;51970;53.484;49.488;2023-04-25T11:48:47;16.50;65.26
65369;HTU21D;51970;53.484;49.488;2023-04-25T11:51:23;16.45;65.58
65369;HTU21D;51970;53.484;49.488;2023-04-25T11:54:07;16.32;66.24
65369;HTU21D;51970;53.484;49.488;2023-04-25T11:56:36;16.22;65.39
65369;HTU21D;51970;53.484;49.488;2023-04-25T11:59:07;16.11;65.79
65369;HTU21D;51970;53.484;49.488;2023-04-25T12:01:35;16.03;66.68
65369;HTU21D;51970;53.484;49.488;2023-04-25T12:04:31;15.92;66.27
65369;HTU21D;51970;53.484;49.488;2023-04-25T12:07:16;15.93;68.55
65369;HTU21D;51970;53.484;49.488;2023-04-25T12:09:51;15.92;68.23
65369;HTU21D;51970;53.484;49.488;2023-04-25T12:12:18;15.88;67.33
65369;HTU21D;51970;53.484;49.488;2023-04-25T12:14:54;15.86;68.23
65369;HTU21D;51970;53.484;49.488;2023-04-25T12:17:22;15.87;69.26
65369;HTU21D;51970;53.484;49.488;2023-04-25T12:19:49;15.85;69.68
65369;HTU21D;51970;53.484;49.488;2023-04-25T12:22:25;15.82;69.51
65369;HTU21D;51970;53.484;49.488;2023-04-25T12:24:51;15.76;69.52
65369;HTU21D;51970;53.484;49.488;2023-04-25T12:27:19;15.71;69.35
65369;HTU21D;51970;53.484;49.488;2023-04-25T12:29:53;15.71;69.78
65369;HTU21D;51970;53.484;49.488;2023-04-25T12:32:24;15.69;70.00
65369;HTU21D;51970;53.484;49.488;2023-04-25T12:34:51;15.70;69.96
65369;HTU21D;51970;53.484;49.488;2023-04-25T12:37:18;15.67;68.83
65369;HTU21D;51970;53.484;49.488;2023-04-25T12:39:47;15.68;70.96
65369;HTU21D;51970;53.484;49.488;2023-04-25T12:42:40;15.66;70.07
65369;HTU21D;51970;53.484;49.488;2023-04-25T12:45:23;15.66;71.82
65369;HTU21D;51970;53.484;49.488;2023-04-25T12:48:12;15.66;70.93
65369;HTU21D;51970;53.484;49.488;2023-04-25T12:50:40;15.67;72.61
65369;HTU21D;51970;53.484;49.488;2023-04-25T12:53:16;15.60;72.81
65369;HTU21D;51970;53.484;49.488;2023-04-25T12:55:45;15.54;72.87
65369;HTU21D;51970;53.484;49.488;2023-04-25T12:58:50;15.43;75.08
65369;HTU21D;51970;53.484;49.488;2023-04-25T13:02:22;15.38;75.05
65369;HTU21D;51970;53.484;49.488;2023-04-25T13:05:25;15.27;78.21
65369;HTU21D;51970;53.484;49.488;2023-04-25T13:08:16;15.16;76.76
65369;HTU21D;51970;53.484;49.488;2023-04-25T13:11:17;15.08;77.26
65369;HTU21D;51970;53.484;49.488;2023-04-25T13:13:47;15.00;77.82
65369;HTU21D;51970;53.484;49.488;2023-04-25T13:16:14;14.91;78.64
65369;HTU21D;51970;53.484;49.488;2023-04-25T13:18:41;14.81;79.43
65369;HTU21D;51970;53.484;49.488;2023-04-25T13:21:31;14.79;79.63
65369;HTU21D;51970;53.484;49.488;2023-04-25T13:23:59;14.81;79.51
65369;HTU21D;51970;53.484;49.488;2023-04-25T13:26:27;14.80;79.60
65369;HTU21D;51970;53.484;49.488;2023-04-25T13:28:54;14.78;79.58
65369;HTU21D;51970;53.484;49.488;2023-04-25T13:31:23;14.75;79.98
65369;HTU21D;51970;53.484;49.488;2023-04-25T13:33:53;14.74;80.50
65369;HTU21D;51970;53.484;49.488;2023-04-25T13:36:19;14.78;79.77
65369;HTU21D;51970;53.484;49.488;2023-04-25T13:38:46;14.80;80.04
65369;HTU21D;51970;53.484;49.488;2023-04-25T13:41:13;14.86;80.24
65369;HTU21D;51970;53.484;49.488;2023-04-25T13:43:45;14.85;80.46
65369;HTU21D;51970;53.484;49.488;2023-04-25T13:46:13;14.86;79.94
65369;HTU21D;51970;53.484;49.488;2023-04-25T13:48:41;14.85;81.36
65369;HTU21D;51970;53.484;49.488;2023-04-25T13:51:15;14.86;81.99
65369;HTU21D;51970;53.484;49.488;2023-04-25T13:53:41;14.86;81.62
65369;HTU21D;51970;53.484;49.488;2023-04-25T13:56:08;14.82;82.25
65369;HTU21D;51970;53.484;49.488;2023-04-25T13:58:34;14.78;82.58
65369;HTU21D;51970;53.484;49.488;2023-04-25T14:01:00;14.71;81.95
65369;HTU21D;51970;53.484;49.488;2023-04-25T14:03:30;14.65;82.63
65369;HTU21D;51970;53.484;49.488;2023-04-25T14:05:58;14.58;83.49
65369;HTU21D;51970;53.484;49.488;2023-04-25T14:08:24;14.55;84.26
65369;HTU21D;51970;53.484;49.488;2023-04-25T14:10:52;14.51;84.15
65369;HTU21D;51970;53.484;49.488;2023-04-25T14:13:26;14.32;82.78
65369;HTU21D;51970;53.484;49.488;2023-04-25T14:15:54;14.11;82.86
65369;HTU21D;51970;53.484;49.488;2023-04-25T14:18:23;14.04;83.31
65369;HTU21D;51970;53.484;49.488;2023-04-25T14:20:52;13.99;83.33
65369;HTU21D;51970;53.484;49.488;2023-04-25T14:23:20;13.98;83.65
65369;HTU21D;51970;53.484;49.488;2023-04-25T14:25:46;13.95;84.36
65369;HTU21D;51970;53.484;49.488;2023-04-25T14:28:14;13.95;84.06
65369;HTU21D;51970;53.484;49.488;2023-04-25T14:30:42;13.84;83.49
65369;HTU21D;51970;53.484;49.488;2023-04-25T14:33:09;13.79;84.32
65369;HTU21D;51970;53.484;49.488;2023-04-25T14:35:35;13.73;84.88
65369;HTU21D;51970;53.484;49.488;2023-04-25T14:38:02;13.70;84.39
65369;HTU21D;51970;53.484;49.488;2023-04-25T14:40:29;13.68;85.38
65369;HTU21D;51970;53.484;49.488;2023-04-25T14:42:55;13.61;86.35
65369;HTU21D;51970;53.484;49.488;2023-04-25T14:45:22;13.55;86.60
65369;HTU21D;51970;53.484;49.488;2023-04-25T14:47:50;13.56;87.18
65369;HTU21D;51970;53.484;49.488;2023-04-25T14:50:23;13.56;88.00
65369;HTU21D;51970;53.484;49.488;2023-04-25T14:52:57;13.58;88.25
65369;HTU21D;51970;53.484;49.488;2023-04-25T14:55:27;13.58;88.03
65369;HTU21D;51970;53.484;49.488;2023-04-25T14:57:59;13.56;87.63
65369;HTU21D;51970;53.484;49.488;2023-04-25T15:00:29;13.56;86.86
65369;HTU21D;51970;53.484;49.488;2023-04-25T15:03:21;13.56;86.67
65369;HTU21D;51970;53.484;49.488;2023-04-25T15:06:00;13.55;87.01
65369;HTU21D;51970;53.484;49.488;2023-04-25T15:08:26;13.53;87.21
65369;HTU21D;51970;53.484;49.488;2023-04-25T15:10:54;13.44;87.40
65369;HTU21D;51970;53.484;49.488;2023-04-25T15:13:59;13.37;88.48
65369;HTU21D;51970;53.484;49.488;2023-04-25T15:16:25;13.32;88.64
65369;HTU21D;51970;53.484;49.488;2023-04-25T15:19:06;13.29;88.50
65369;HTU21D;51970;53.484;49.488;2023-04-25T15:21:58;13.27;88.74
65369;HTU21D;51970;53.484;49.488;2023-04-25T15:24:27;13.31;87.99
65369;HTU21D;51970;53.484;49.488;2023-04-25T15:27:16;13.24;89.38
65369;HTU21D;51970;53.484;49.488;2023-04-25T15:29:50;13.19;90.08
65369;HTU21D;51970;53.484;49.488;2023-04-25T15:33:46;13.15;89.62
65369;HTU21D;51970;53.484;49.488;2023-04-25T15:37:09;13.15;89.49
65369;HTU21D;51970;53.484;49.488;2023-04-25T15:40:13;13.11;89.08
65369;HTU21D;51970;53.484;49.488;2023-04-25T15:42:50;13.10;89.05
65369;HTU21D;51970;53.484;49.488;2023-04-25T15:45:39;13.11;88.94
65369;HTU21D;51970;53.484;49.488;2023-04-25T15:48:08;13.11;88.63
65369;HTU21D;51970;53.484;49.488;2023-04-25T15:50:36;13.09;87.96
65369;HTU21D;51970;53.484;49.488;2023-04-25T15:53:09;13.12;88.09
65369;HTU21D;51970;53.484;49.488;2023-04-25T15:55:45;13.12;87.56
65369;HTU21D;51970;53.484;49.488;2023-04-25T15:58:12;13.15;86.84
65369;HTU21D;51970;53.484;49.488;2023-04-25T16:00:39;13.14;87.55
65369;HTU21D;51970;53.484;49.488;2023-04-25T16:03:06;13.08;87.83
65369;HTU21D;51970;53.484;49.488;2023-04-25T16:05:42;13.03;87.66
65369;HTU21D;51970;53.484;49.488;2023-04-25T16:08:09;13.00;87.96
65369;HTU21D;51970;53.484;49.488;2023-04-25T16:10:35;13.01;87.48
65369;HTU21D;51970;53.484;49.488;2023-04-25T16:13:02;13.02;87.37
65369;HTU21D;51970;53.484;49.488;2023-04-25T16:15:28;13.05;87.38
65369;HTU21D;51970;53.484;49.488;2023-04-25T16:17:54;13.01;87.97
65369;HTU21D;51970;53.484;49.488;2023-04-25T16:20:22;12.94;88.16
65369;HTU21D;51970;53.484;49.488;2023-04-25T16:22:48;12.93;87.93
65369;HTU21D;51970;53.484;49.488;2023-04-25T16:25:21;12.93;88.15
65369;HTU21D;51970;53.484;49.488;2023-04-25T16:27:57;12.90;88.33
65369;HTU21D;51970;53.484;49.488;2023-04-25T16:30:24;12.90;88.44
65369;HTU21D;51970;53.484;49.488;2023-04-25T16:32:51;12.87;88.00
65369;HTU21D;51970;53.484;49.488;2023-04-25T16:35:18;12.80;88.62
65369;HTU21D;51970;53.484;49.488;2023-04-25T16:38:06;12.80;88.42
65369;HTU21D;51970;53.484;49.488;2023-04-25T16:40:42;12.76;88.36
65369;HTU21D;51970;53.484;49.488;2023-04-25T16:43:10;12.80;87.73
65369;HTU21D;51970;53.484;49.488;2023-04-25T16:45:36;12.82;87.37
65369;HTU21D;51970;53.484;49.488;2023-04-25T16:48:04;12.88;86.67
65369;HTU21D;51970;53.484;49.488;2023-04-25T16:50:36;12.91;86.42
65369;HTU21D;51970;53.484;49.488;2023-04-25T16:53:38;12.90;86.44
65369;HTU21D;51970;53.484;49.488;2023-04-25T16:56:04;12.92;86.21
65369;HTU21D;51970;53.484;49.488;2023-04-25T16:58:35;12.88;86.03
65369;HTU21D;51970;53.484;49.488;2023-04-25T17:01:02;12.86;85.46
65369;HTU21D;51970;53.484;49.488;2023-04-25T17:03:29;12.86;85.31
65369;HTU21D;51970;53.484;49.488;2023-04-25T17:05:58;12.87;85.93
65369;HTU21D;51970;53.484;49.488;2023-04-25T17:08:27;12.86;85.52
65369;HTU21D;51970;53.484;49.488;2023-04-25T17:10:54;12.86;86.25